Guatay, CA (91931)

3:22 PM PDT on July 23, 2016 (GMT -0700)
Pine valley | | Change Station
Active Advisory: Heat Advisory Active Notice: Record Report

Elev 3671 ft 32.84 °N, 116.53 °W | Updated 1 minute ago

Clear
Clear
102.9 °F
Feels Like 100 °F
N
4.7
Wind Variable Wind from West

Today
High -- | Low -- °F
--% Chance of Precip.
Yesterday
High -- | Low -- °F
Precip. -- in
Pressure 29.75 in
Visibility -9999.0 miles
Clouds
Heat Index 100 °F
Dew Point 50 °F
Humidity 17%
Rainfall 0.00 in
Snow Depth Not available.
5:54 AM 7:50 PM
Waning Gibbous, 82% visible
METAR KCZZ 232152Z AUTO 23013G21KT 38/08 A2987 RMK AO1 SLP075 T03830083
Pressure 29.75 in
Visibility -9999.0 miles
Clouds
Heat Index 100 °F
Dew Point 50 °F
Humidity 17%
Rainfall 0.00 in
Snow Depth Not available.
5:54 AM 7:50 PM
Waning Gibbous, 82% visible
METAR KCZZ 232152Z AUTO 23013G21KT 38/08 A2987 RMK AO1 SLP075 T03830083

10-Day Weather Forecast

Almanac

Astronomy

Jul. 23, 2016 Rise Set
Actual Time
Civil Twilight
Nautical Twilight
Astronomical Twilight
Moon
Length of Visible Light
Length of Day
Tomorrow will be .
, % of the Moon is Illuminated

Today's Extremes

State Highs State Lows

Community

WunderPhotos

Upload Photos

1,926,948 photos uploaded!

WunderBlog® & News

Nearby

Air Quality

  Air Quality AQ Index Pollutant
Not available.

Snow Depth

Station Depth Elevation

Earthquake Activity

City Distance Mag. Time & Date
Minimum magnitude displayed is 2.5.

Coastal Water Temperatures

Place Temperature

Stations

Nearby Weather Stations

Station Location Temp. Windchill Dew Point Humidity Wind Precip. Elev Updated Type
                   

Watches & Warnings

Heat Advisory
Issued: 1:24 PM PDT Jul. 23, 2016 – National Weather Service

... Heat advisory remains in effect until 8 PM PDT Sunday...

* high temperatures today...

Inland Empire... ... ... ... ... 105 to 112.
San Diego County valleys... ..95 to 105.
Lower deserts... ... ... ... ... 105 to 111.
Upper deserts... ... ... ... ... 102 to 110.
Mountains below 5000 feet... .96 to 107.

* Outlook for Sunday... around 10 degrees of cooling in the
valleys and 5 degrees of cooling elsewhere.

* Impacts... over exposure to heat could lead to heat illness
especially for people at risk... including the elderly and
children. Pets are also at risk. Remember to check your
backseat for people and pets!!

Precautionary/preparedness actions...

Take extra precautions if you work or spend time outside. When
possible... reschedule strenuous activities to early morning or
evening. Know the signs and symptoms of heat exhaustion and heat
stroke. Wear light weight and loose fitting clothing when
possible and drink plenty of water.

To reduce risk during outdoor work the occupational safety and
health administration recommends scheduling frequent rest breaks
in shaded or air conditioned environments. Anyone overcome by
heat should be moved to a cool and shaded location. Heat stroke
is an emergency - call 9 1 1.